In Rescue
 
Open Full Screen Window  High Contrast Mode
Wind Gusting 00 knots
03
March 29, 2020 7:55 PM CDT
Weather Information
Wind Direction
  270 °
Wind Speed
  03 kt (3 mph)
Wind Gust
  00 kt (0 mph)
Altimeter
29.95 in
Visibility
10 SM
Temperature
09° C
48° F
Dewpoint
02° C
36° F
Humidity
62%
1hr Rain Fall
00.00 in.
24hr Rain Fall
00.30 in.
Sky Condition
Clear
VFR

METAR KANE 300055Z AUTO 27003KT 10SM CLR 09/02 A2995 RMK AO2

FAA Disclaimer: The data displayed is for advisory purposes only and is not to be used for flight planning or operations.